This is the latest recevied weather packets stored in our database for station/object KE0PRS. If no packets are shown the sender has not sent any weather packets the latest 10 day(s).
| Time | Temp. | Humidity | Pressure | Rain* | Wind** | Luminosity | Snow |
|---|---|---|---|---|---|---|---|
| 1787671918 | 31.11° C | 55% | 1018.4 hPa | 0 mm | - | 144 W/m² | - |
| 1787671614 | 30.56° C | 56% | 1017.9 hPa | 0 mm | - | 337 W/m² | - |
| 1787671314 | 31.11° C | 54% | 1017.7 hPa | 0 mm | - | 411 W/m² | - |
| 1787671009 | 31.11° C | 55% | 1017.6 hPa | 0 mm | - | 523 W/m² | - |
| 1787670705 | 30.56° C | 57% | 1017.2 hPa | 0 mm | - | 440 W/m² | - |
| 1787670404 | 30° C | 58% | 1017.4 hPa | 0 mm | - | 375 W/m² | - |
| 1787670098 | 30° C | 59% | 1017.5 hPa | 0 mm | - | 368 W/m² | - |
| 1787669798 | 30° C | 61% | 1017.8 hPa | 0 mm | - | 381 W/m² | - |
| 1787669493 | 30° C | 60% | 1017.9 hPa | 0 mm | - | 340 W/m² | - |
| 1787669189 | 29.44° C | 63% | 1018.1 hPa | 0 mm | - | 337 W/m² | - |
| 1787668885 | 28.33° C | 66% | 1017.8 hPa | 0 mm | - | 242 W/m² | - |
| 1787668581 | 28.33° C | 66% | 1017.9 hPa | 0 mm | - | 281 W/m² | - |
| 1787668276 | 27.78° C | 67% | 1018.1 hPa | 0 mm | - | 254 W/m² | - |
| 1787667971 | 27.78° C | 68% | 1017.9 hPa | 0 mm | - | 246 W/m² | - |
| 1787667666 | 27.22° C | 68% | 1017.9 hPa | 0 mm | - | 230 W/m² | - |
| 1787667362 | 26.67° C | 70% | 1017.8 hPa | 0 mm | - | 222 W/m² | - |
| 1787667061 | 26.11° C | 72% | 1018 hPa | 0 mm | - | 206 W/m² | - |
| 1787666757 | 25.56° C | 74% | 1018 hPa | 0 mm | - | 197 W/m² | - |
| 1787666457 | 25° C | 75% | 1018 hPa | 0 mm | - | 188 W/m² | - |
| 1787666152 | 25° C | 76% | 1017.8 hPa | 0 mm | - | 178 W/m² | - |
| 1787665847 | 24.44° C | 78% | 1017.8 hPa | 0 mm | - | 168 W/m² | - |
| 1787665544 | 23.89° C | 79% | 1017.9 hPa | 0 mm | - | 126 W/m² | - |
| 1787665238 | 23.89° C | 80% | 1018 hPa | 0 mm | - | 148 W/m² | - |
| 1787664935 | 23.33° C | 82% | 1018 hPa | 0 mm | - | 139 W/m² | - |
| 1787664630 | 22.78° C | 85% | 1018.2 hPa | 0 mm | - | 123 W/m² | - |
* Rain latest hour (hover to see other rain measurements)
** Current wind speed in m/s (hover to see current wind gust speed)